Time;durP1;ratioP1;P1;durP2;ratioP2;P2;SDS_P1;SDS_P2;PMS_P1;PMS_P2;Temp;Humidity;BMP_temperature;BMP_pressure;BME280_temperature;BME280_humidity;BME280_pressure;Samples;Min_cycle;Max_cycle;Signal;HPM_P1;HPM_P2
2023/04/24 00:00:41;;;;;;;2.45;0.90;;;16.40;62.50;;;;;;6144240;29;20453;-66
2023/04/24 00:03:42;;;;;;;3.60;1.02;;;16.30;62.40;;;;;;6128908;28;20036;-66
2023/04/24 00:06:43;;;;;;;4.80;0.85;;;16.40;62.50;;;;;;6120676;29;20032;-66
2023/04/24 00:09:44;;;;;;;1.15;0.93;;;16.40;62.30;;;;;;6119846;29;20028;-68
2023/04/24 00:12:45;;;;;;;0.85;0.50;;;16.40;62.20;;;;;;6120282;29;20027;-67
2023/04/24 00:15:47;;;;;;;0.50;0.40;;;16.40;62.10;;;;;;6120220;29;20094;-66
2023/04/24 00:18:48;;;;;;;1.08;0.52;;;16.40;61.90;;;;;;6120000;29;20761;-66
2023/04/24 00:21:51;;;;;;;0.52;0.47;;;16.40;61.60;;;;;;6120408;29;20046;-67
2023/04/24 00:24:53;;;;;;;0.65;0.63;;;16.40;61.40;;;;;;6120045;29;20099;-65
2023/04/24 00:27:54;;;;;;;1.02;0.50;;;16.40;61.30;;;;;;6120258;29;20071;-68
2023/04/24 00:30:55;;;;;;;0.82;0.50;;;16.40;61.20;;;;;;6120355;29;20453;-68
2023/04/24 00:33:56;;;;;;;1.55;0.65;;;16.40;61.10;;;;;;6119947;29;20139;-67
2023/04/24 00:36:57;;;;;;;1.08;0.90;;;16.40;61.10;;;;;;6120934;29;20334;-68
2023/04/24 00:39:58;;;;;;;2.20;0.90;;;16.40;61.10;;;;;;6143651;28;20026;-67
2023/04/24 00:42:59;;;;;;;0.65;0.65;;;16.40;61.20;;;;;;6144280;28;20511;-68
2023/04/24 00:46:01;;;;;;;0.98;0.63;;;16.50;61.20;;;;;;6147243;28;20143;-66
2023/04/24 00:49:02;;;;;;;0.73;0.40;;;16.40;61.20;;;;;;6146844;28;20448;-66
2023/04/24 00:52:07;;;;;;;0.60;0.60;;;16.50;61.20;;;;;;6148634;28;20035;-67
2023/04/24 00:55:08;;;;;;;1.13;0.65;;;16.50;61.10;;;;;;6147000;28;20553;-67
2023/04/24 00:58:09;;;;;;;1.88;0.90;;;16.50;61.00;;;;;;6145468;28;20039;-67
2023/04/24 01:01:11;;;;;;;2.17;0.55;;;16.50;61.00;;;;;;6101054;29;20107;-67
2023/04/24 01:04:13;;;;;;;1.67;0.75;;;16.50;60.90;;;;;;6099347;29;20469;-68
2023/04/24 01:07:14;;;;;;;2.65;0.60;;;16.50;60.90;;;;;;6113838;29;20488;-68
2023/04/24 01:10:17;;;;;;;1.52;0.63;;;16.50;60.80;;;;;;6124126;29;20028;-68
2023/04/24 01:13:20;;;;;;;0.50;0.50;;;16.50;60.80;;;;;;6124149;29;20039;-68
2023/04/24 01:16:21;;;;;;;1.40;0.73;;;16.50;61.60;;;;;;6123802;29;20024;-66
2023/04/24 01:19:22;;;;;;;1.00;0.70;;;16.50;60.70;;;;;;6123616;29;20020;-67
2023/04/24 01:22:23;;;;;;;0.70;0.50;;;16.50;60.70;;;;;;6123875;29;20078;-66
2023/04/24 01:25:26;;;;;;;2.35;0.50;;;16.50;60.80;;;;;;6122480;29;20032;-66
2023/04/24 01:28:27;;;;;;;1.20;0.73;;;16.50;60.80;;;;;;6123811;29;20413;-70
2023/04/24 01:31:29;;;;;;;1.00;0.60;;;16.50;60.90;;;;;;6122603;29;20020;-66
2023/04/24 01:34:30;;;;;;;0.98;0.68;;;16.50;60.80;;;;;;6106150;29;20058;-66
2023/04/24 01:37:32;;;;;;;1.40;0.57;;;16.50;60.90;;;;;;6127484;29;20074;-67
2023/04/24 01:40:34;;;;;;;0.65;0.55;;;16.50;61.00;;;;;;6147128;28;20074;-67
2023/04/24 01:43:35;;;;;;;0.73;0.60;;;16.50;61.10;;;;;;6145784;28;20039;-67
2023/04/24 01:46:36;;;;;;;0.85;0.60;;;16.50;61.20;;;;;;6146857;28;20102;-66
2023/04/24 01:49:39;;;;;;;1.55;0.47;;;16.50;61.30;;;;;;6144933;28;20114;-66
2023/04/24 01:52:40;;;;;;;1.27;0.40;;;16.50;61.40;;;;;;6146781;28;20023;-66
2023/04/24 01:55:41;;;;;;;1.23;0.68;;;16.40;61.30;;;;;;6133908;28;20114;-68
2023/04/24 01:58:42;;;;;;;1.35;0.75;;;16.40;61.40;;;;;;6121245;29;20055;-67
2023/04/24 02:01:43;;;;;;;0.88;0.60;;;16.40;61.50;;;;;;6122851;29;20425;-66
2023/04/24 02:04:44;;;;;;;0.45;0.45;;;16.30;61.50;;;;;;6105436;29;20440;-66
2023/04/24 02:07:45;;;;;;;0.88;0.52;;;16.30;61.60;;;;;;6122480;29;20036;-67
2023/04/24 02:10:46;;;;;;;0.55;0.40;;;16.30;61.70;;;;;;6120809;29;20032;-67
2023/04/24 02:13:47;;;;;;;1.05;0.60;;;16.30;61.70;;;;;;6122626;29;20073;-68
2023/04/24 02:16:48;;;;;;;0.50;0.50;;;16.30;61.70;;;;;;6122358;29;20132;-69
2023/04/24 02:19:49;;;;;;;1.25;0.47;;;16.30;61.80;;;;;;6120919;29;20043;-66
2023/04/24 02:22:51;;;;;;;3.97;0.68;;;16.20;61.60;;;;;;6105266;29;20024;-66
2023/04/24 02:25:53;;;;;;;1.77;0.47;;;16.30;61.60;;;;;;6105555;29;20091;-68
2023/04/24 02:28:54;;;;;;;0.98;0.43;;;16.30;61.60;;;;;;6120615;29;20023;-67
2023/04/24 02:31:55;;;;;;;0.95;0.38;;;16.30;61.70;;;;;;6122151;29;20024;-66
2023/04/24 02:34:56;;;;;;;2.15;0.45;;;16.30;61.80;;;;;;6122281;29;20028;-68
2023/04/24 02:37:57;;;;;;;0.40;0.40;;;16.30;61.80;;;;;;6120541;29;20036;-66
2023/04/24 02:40:58;;;;;;;1.15;0.60;;;16.30;61.60;;;;;;6120181;29;20054;-66
2023/04/24 02:44:00;;;;;;;0.40;0.25;;;16.20;61.50;;;;;;6120372;29;20040;-69
2023/04/24 02:47:01;;;;;;;0.30;0.30;;;16.30;61.50;;;;;;6121437;29;20039;-68
2023/04/24 02:50:03;;;;;;;0.32;0.32;;;16.30;61.30;;;;;;6122057;29;20079;-67
2023/04/24 02:53:04;;;;;;;1.38;0.50;;;16.30;61.10;;;;;;6141619;29;20024;-67
2023/04/24 02:56:06;;;;;;;0.75;0.40;;;16.30;60.90;;;;;;6128487;29;20135;-67
2023/04/24 02:59:07;;;;;;;0.52;0.52;;;16.30;60.80;;;;;;6135398;28;20111;-67
2023/04/24 03:02:08;;;;;;;1.92;0.55;;;16.30;60.70;;;;;;6104542;29;20031;-66
2023/04/24 03:05:11;;;;;;;0.98;0.57;;;16.30;60.60;;;;;;6120282;29;20043;-66
2023/04/24 03:08:12;;;;;;;1.38;0.45;;;16.30;60.60;;;;;;6119546;29;20051;-67
2023/04/24 03:11:13;;;;;;;0.77;0.45;;;16.30;60.60;;;;;;6119978;29;20368;-66
2023/04/24 03:14:16;;;;;;;0.90;0.43;;;16.20;60.40;;;;;;6120071;29;20389;-66
2023/04/24 03:17:17;;;;;;;0.38;0.35;;;16.30;60.30;;;;;;6119635;29;20134;-67
2023/04/24 03:20:18;;;;;;;3.85;0.77;;;16.20;61.00;;;;;;6119771;29;20043;-66
2023/04/24 03:23:19;;;;;;;7.00;0.40;;;16.20;60.30;;;;;;6119331;29;20422;-68
2023/04/24 03:26:20;;;;;;;0.82;0.60;;;16.20;60.60;;;;;;6119784;29;20039;-68
2023/04/24 03:29:35;;;;;;;0.55;0.47;;;16.10;60.80;;;;;;6119463;29;20036;-67
2023/04/24 03:32:36;;;;;;;0.50;0.40;;;16.10;61.00;;;;;;6119666;29;20020;-69
2023/04/24 03:35:38;;;;;;;0.95;0.50;;;16.10;61.20;;;;;;6119698;29;20135;-66
2023/04/24 03:38:43;;;;;;;1.05;0.50;;;16.10;61.30;;;;;;6119454;29;20188;-66
2023/04/24 03:42:00;;;;;;;1.90;0.47;;;16.10;61.40;;;;;;6105381;29;20062;-67
2023/04/24 03:45:11;;;;;;;0.68;0.52;;;16.00;61.60;;;;;;6119210;29;20059;-69
2023/04/24 03:48:15;;;;;;;1.00;0.30;;;16.00;61.90;;;;;;6103835;29;20023;-66
2023/04/24 03:51:16;;;;;;;1.48;0.60;;;16.00;62.00;;;;;;6123332;29;20015;-66
2023/04/24 03:54:20;;;;;;;6.90;0.90;;;15.90;62.10;;;;;;6142910;28;20031;-66
2023/04/24 03:57:21;;;;;;;1.92;0.70;;;15.90;62.40;;;;;;6118814;29;20034;-67
2023/04/24 04:00:37;;;;;;;0.82;0.55;;;15.80;63.40;;;;;;6119153;29;20054;-67
2023/04/24 04:04:16;;;;;;;0.60;0.40;;;15.80;62.70;;;;;;6124430;29;20039;-66
2023/04/24 04:07:19;;;;;;;0.93;0.70;;;15.80;62.90;;;;;;6119056;29;20046;-67
2023/04/24 04:10:20;;;;;;;1.80;0.80;;;15.80;62.90;;;;;;6120276;29;20064;-65
2023/04/24 04:13:21;;;;;;;1.92;1.08;;;15.80;62.80;;;;;;6120158;29;20107;-67
2023/04/24 04:16:23;;;;;;;0.50;0.50;;;15.90;62.90;;;;;;6120376;29;20443;-66
2023/04/24 04:19:28;;;;;;;8.27;0.90;;;15.90;62.80;;;;;;6118607;28;20111;-66
2023/04/24 04:22:29;;;;;;;2.47;0.63;;;15.90;62.60;;;;;;6119079;29;20397;-67
2023/04/24 04:25:34;;;;;;;17.42;1.08;;;15.90;62.60;;;;;;6118701;29;20412;-67
2023/04/24 04:28:35;;;;;;;1.02;0.70;;;15.90;62.60;;;;;;6118420;29;20055;-65
2023/04/24 04:31:36;;;;;;;1.88;1.05;;;15.90;62.50;;;;;;6118436;29;20079;-68
2023/04/24 04:34:42;;;;;;;0.90;0.50;;;15.80;62.50;;;;;;6103404;29;20138;-67
2023/04/24 04:37:45;;;;;;;0.90;0.70;;;15.90;62.50;;;;;;6118279;29;20062;-65
2023/04/24 04:41:00;;;;;;;3.33;2.05;;;15.80;62.50;;;;;;6118423;29;20038;-65
2023/04/24 04:44:04;;;;;;;14.30;5.00;;;15.90;62.60;;;;;;6117933;29;20124;-67
2023/04/24 04:47:08;;;;;;;22.23;7.07;;;15.90;62.40;;;;;;6102409;29;20030;-66
2023/04/24 04:50:11;;;;;;;14.02;7.93;;;15.90;63.10;;;;;;6118127;29;20114;-66
2023/04/24 04:53:12;;;;;;;12.80;5.97;;;15.90;62.20;;;;;;6136172;28;20035;-67
2023/04/24 04:56:13;;;;;;;19.95;6.10;;;15.80;62.20;;;;;;6141861;28;20027;-67
2023/04/24 04:59:16;;;;;;;5.10;3.08;;;15.70;62.50;;;;;;6141552;28;20023;-67
2023/04/24 05:02:17;;;;;;;7.47;3.22;;;15.70;62.90;;;;;;6125893;29;20032;-66
2023/04/24 05:05:19;;;;;;;4.88;2.17;;;15.60;63.10;;;;;;6141819;28;20054;-65
2023/04/24 05:08:20;;;;;;;6.18;1.35;;;15.60;63.40;;;;;;6141298;28;20511;-66
2023/04/24 05:11:21;;;;;;;2.30;1.80;;;15.60;63.50;;;;;;6142822;29;20023;-66
2023/04/24 05:14:22;;;;;;;6.22;2.20;;;15.50;63.60;;;;;;6141461;28;20035;-65
2023/04/24 05:17:24;;;;;;;5.72;2.88;;;15.50;63.60;;;;;;6125950;28;20062;-67
2023/04/24 05:20:27;;;;;;;5.72;2.20;;;15.50;63.60;;;;;;6142088;28;20373;-67
2023/04/24 05:23:29;;;;;;;2.15;1.20;;;15.50;63.60;;;;;;6141655;28;20027;-66
2023/04/24 05:26:31;;;;;;;4.97;1.05;;;15.60;63.70;;;;;;6141643;28;20089;-67
2023/04/24 05:29:33;;;;;;;1.42;0.70;;;15.60;63.60;;;;;;6141217;28;20027;-66
2023/04/24 05:32:34;;;;;;;1.10;0.90;;;15.60;63.50;;;;;;6139740;28;20110;-68
2023/04/24 05:35:35;;;;;;;1.95;0.80;;;15.60;63.30;;;;;;6121900;29;20035;-70
2023/04/24 05:38:36;;;;;;;5.47;0.93;;;15.70;63.20;;;;;;6121625;29;20095;-68
2023/04/24 05:41:37;;;;;;;1.80;0.90;;;15.80;63.20;;;;;;6123093;29;20031;-68
2023/04/24 05:44:38;;;;;;;1.20;0.90;;;15.80;63.00;;;;;;6121543;29;20488;-68
2023/04/24 05:47:39;;;;;;;2.20;1.10;;;15.90;63.00;;;;;;6105624;29;20035;-68
2023/04/24 05:50:40;;;;;;;1.60;1.05;;;15.90;62.80;;;;;;6106290;29;20102;-68
2023/04/24 05:53:42;;;;;;;2.20;1.10;;;16.00;62.70;;;;;;6143984;28;20031;-67
2023/04/24 05:56:43;;;;;;;6.03;1.00;;;16.10;62.70;;;;;;6145821;28;20042;-67
2023/04/24 05:59:48;;;;;;;5.05;0.90;;;16.10;62.50;;;;;;6145038;28;20103;-66
2023/04/24 06:02:51;;;;;;;3.67;1.50;;;16.20;62.20;;;;;;6145772;28;20062;-67
2023/04/24 06:05:52;;;;;;;3.42;1.10;;;16.20;61.90;;;;;;6129561;29;20039;-67
2023/04/24 06:08:53;;;;;;;6.60;1.55;;;16.20;61.70;;;;;;6144705;28;20121;-67
2023/04/24 06:11:54;;;;;;;5.13;1.25;;;16.30;61.60;;;;;;6146530;28;20030;-65
2023/04/24 06:15:00;;;;;;;3.92;1.80;;;16.30;61.60;;;;;;6145071;28;20098;-68
2023/04/24 06:18:15;;;;;;;2.83;1.00;;;16.20;61.90;;;;;;6144472;28;20035;-68
2023/04/24 06:21:16;;;;;;;2.55;0.80;;;16.10;62.20;;;;;;6144496;28;20027;-67
2023/04/24 06:24:18;;;;;;;2.05;1.05;;;16.00;62.50;;;;;;6144162;28;20032;-67
2023/04/24 06:27:19;;;;;;;2.92;1.08;;;16.00;62.80;;;;;;6144375;28;20116;-68
2023/04/24 06:30:20;;;;;;;3.35;1.23;;;15.80;62.90;;;;;;6145037;28;20082;-67
2023/04/24 06:33:21;;;;;;;3.22;1.05;;;15.90;63.40;;;;;;6132127;28;20718;-67
2023/04/24 06:36:26;;;;;;;2.70;0.95;;;15.80;63.70;;;;;;6120310;29;20039;-69
2023/04/24 06:39:27;;;;;;;1.85;1.02;;;15.70;64.10;;;;;;6104600;29;20098;-70
2023/04/24 06:42:28;;;;;;;1.17;0.93;;;15.60;64.40;;;;;;6121942;29;20477;-67
2023/04/24 06:45:30;;;;;;;2.17;1.23;;;15.60;64.70;;;;;;6104310;29;20543;-66
2023/04/24 06:48:31;;;;;;;7.97;1.30;;;15.70;64.90;;;;;;6121369;29;20115;-67
2023/04/24 06:51:32;;;;;;;1.08;0.90;;;15.70;64.90;;;;;;6108886;29;20035;-67
2023/04/24 06:54:34;;;;;;;0.80;0.77;;;15.80;64.80;;;;;;6143312;28;20445;-68
2023/04/24 06:57:35;;;;;;;3.03;0.88;;;15.90;64.80;;;;;;6145503;28;20060;-68
2023/04/24 07:00:36;;;;;;;6.75;1.10;;;16.00;64.60;;;;;;6128123;28;20445;-68
2023/04/24 07:03:37;;;;;;;1.38;1.00;;;16.10;64.30;;;;;;6145560;28;20101;-67
2023/04/24 07:06:38;;;;;;;8.52;0.77;;;16.20;64.00;;;;;;6143828;29;20098;-67
2023/04/24 07:09:44;;;;;;;1.63;0.85;;;16.30;63.80;;;;;;6144607;28;20038;-68
2023/04/24 07:12:46;;;;;;;4.05;0.82;;;16.40;63.50;;;;;;6143263;28;20118;-68
2023/04/24 07:15:48;;;;;;;1.65;1.05;;;16.40;63.30;;;;;;6143312;29;20023;-67
2023/04/24 07:18:49;;;;;;;4.35;1.40;;;16.40;63.20;;;;;;6144252;28;20390;-69
2023/04/24 07:21:50;;;;;;;2.00;1.05;;;16.40;63.10;;;;;;6144885;28;20050;-67
2023/04/24 07:24:51;;;;;;;6.97;1.20;;;16.40;63.20;;;;;;6136697;28;20453;-68
2023/04/24 07:27:53;;;;;;;4.70;1.90;;;16.40;63.40;;;;;;6121091;29;20039;-67
2023/04/24 07:30:54;;;;;;;1.92;1.10;;;16.40;63.40;;;;;;6120857;29;20549;-68
2023/04/24 07:33:57;;;;;;;1.20;0.80;;;16.40;63.60;;;;;;6120152;29;20126;-67
2023/04/24 07:36:59;;;;;;;6.03;1.25;;;16.30;63.70;;;;;;6120767;29;20044;-69
2023/04/24 07:40:00;;;;;;;3.35;0.85;;;16.40;63.80;;;;;;6119143;29;20028;-69
2023/04/24 07:43:00;;;;;;;1.45;0.95;;;16.40;63.90;;;;;;6120928;29;20489;-67
2023/04/24 07:46:01;;;;;;;0.90;0.60;;;16.40;63.80;;;;;;6119452;29;20037;-68
2023/04/24 07:49:04;;;;;;;2.30;0.82;;;16.50;63.70;;;;;;6120547;29;20104;-66
2023/04/24 07:52:05;;;;;;;8.57;1.77;;;16.50;63.60;;;;;;6129398;29;20379;-67
2023/04/24 07:55:06;;;;;;;3.38;1.67;;;16.60;63.60;;;;;;6144289;28;20031;-67
2023/04/24 07:58:07;;;;;;;2.60;1.20;;;16.60;63.20;;;;;;6144067;28;20039;-67
2023/04/24 08:01:08;;;;;;;1.17;0.98;;;16.60;62.90;;;;;;6120718;29;20054;-66
2023/04/24 08:04:12;;;;;;;2.63;0.70;;;16.70;62.70;;;;;;6120667;29;20360;-70
2023/04/24 08:07:14;;;;;;;1.15;0.80;;;16.70;62.50;;;;;;6120156;29;20082;-67
2023/04/24 08:10:15;;;;;;;1.20;0.50;;;16.70;62.50;;;;;;6120457;29;20064;-67
2023/04/24 08:13:16;;;;;;;1.23;0.80;;;16.80;62.20;;;;;;6120577;29;20377;-68
2023/04/24 08:16:17;;;;;;;2.20;0.80;;;17.00;61.80;;;;;;6120338;29;20068;-71
2023/04/24 08:19:18;;;;;;;5.13;1.10;;;17.10;61.20;;;;;;6120850;29;20047;-66
2023/04/24 08:22:19;;;;;;;2.22;0.85;;;17.20;60.70;;;;;;6121084;29;20106;-68
2023/04/24 08:25:20;;;;;;;0.63;0.50;;;17.20;60.50;;;;;;6120659;29;20086;-68
2023/04/24 08:28:21;;;;;;;3.92;1.00;;;17.20;60.30;;;;;;6120585;29;20024;-71
2023/04/24 08:31:24;;;;;;;7.65;1.00;;;17.10;60.00;;;;;;6120754;29;20178;-67
2023/04/24 08:34:25;;;;;;;6.93;0.90;;;17.00;59.70;;;;;;6099641;29;20458;-69
2023/04/24 08:37:27;;;;;;;3.95;1.20;;;17.10;59.80;;;;;;6111132;29;20083;-66
2023/04/24 08:40:31;;;;;;;2.75;1.05;;;17.20;59.80;;;;;;6120364;29;20032;-67
2023/04/24 08:43:36;;;;;;;3.75;1.35;;;17.30;59.60;;;;;;6121498;29;20032;-69
2023/04/24 08:46:37;;;;;;;1.75;1.15;;;17.50;59.40;;;;;;6120764;29;20119;-69
2023/04/24 08:49:39;;;;;;;4.65;1.40;;;17.80;59.20;;;;;;6119638;29;20164;-66
2023/04/24 08:52:41;;;;;;;1.77;1.17;;;17.80;58.90;;;;;;6137053;28;20040;-66
2023/04/24 08:55:45;;;;;;;1.55;1.27;;;18.10;58.40;;;;;;6144850;28;20039;-68
2023/04/24 08:58:47;;;;;;;4.90;3.05;;;18.20;58.10;;;;;;6145373;28;20031;-68
2023/04/24 09:01:50;;;;;;;4.63;2.58;;;18.30;58.20;;;;;;6145325;28;20023;-69
2023/04/24 09:04:53;;;;;;;3.80;2.40;;;18.30;58.30;;;;;;6143005;28;20065;-69
2023/04/24 09:07:56;;;;;;;2.65;1.60;;;18.40;58.30;;;;;;6147823;28;20042;-68
2023/04/24 09:10:58;;;;;;;2.03;1.42;;;18.50;57.80;;;;;;6146781;28;20552;-67
2023/04/24 09:14:00;;;;;;;1.33;0.90;;;18.70;57.20;;;;;;6146380;28;20023;-68
2023/04/24 09:17:01;;;;;;;5.70;1.08;;;18.80;56.30;;;;;;6147897;28;20106;-69
2023/04/24 09:20:02;;;;;;;0.50;0.40;;;18.80;55.30;;;;;;6149002;28;20054;-67
2023/04/24 09:23:03;;;;;;;1.27;0.68;;;18.90;54.80;;;;;;6147031;28;20035;-68
2023/04/24 09:26:04;;;;;;;1.08;0.70;;;19.10;54.60;;;;;;6121052;28;20036;-67
2023/04/24 09:29:05;;;;;;;0.65;0.52;;;19.30;54.10;;;;;;6114926;29;20413;-68
2023/04/24 09:32:25;;;;;;;1.65;0.82;;;19.40;53.90;;;;;;6101397;29;20028;-68
2023/04/24 09:35:26;;;;;;;2.40;1.00;;;19.70;53.70;;;;;;6100592;29;20027;-69
2023/04/24 09:38:33;;;;;;;11.57;0.98;;;19.90;53.10;;;;;;6100268;29;20678;-69
2023/04/24 09:41:35;;;;;;;0.97;0.83;;;20.00;52.40;;;;;;6082907;29;20460;-68
2023/04/24 09:44:36;;;;;;;11.15;3.03;;;20.20;51.90;;;;;;6100641;29;20039;-68
2023/04/24 09:47:41;;;;;;;6.28;2.63;;;20.40;51.40;;;;;;6098348;29;20071;-67
2023/04/24 09:50:46;;;;;;;3.50;1.50;;;20.40;50.50;;;;;;6100234;29;20118;-67
2023/04/24 09:53:47;;;;;;;11.88;3.42;;;20.40;50.60;;;;;;6144936;28;20042;-68
2023/04/24 09:56:54;;;;;;;4.20;1.60;;;20.50;50.10;;;;;;6146107;29;20453;-67
2023/04/24 09:59:57;;;;;;;1.90;1.02;;;20.30;49.70;;;;;;6145639;29;20133;-67
2023/04/24 10:03:04;;;;;;;3.97;1.40;;;20.10;49.50;;;;;;6147473;28;20121;-68
2023/04/24 10:06:11;;;;;;;1.38;0.90;;;20.00;49.70;;;;;;6146344;28;20138;-68
2023/04/24 10:09:13;;;;;;;1.17;0.90;;;20.00;49.70;;;;;;6130962;28;20040;-67
2023/04/24 10:12:15;;;;;;;7.18;2.13;;;20.00;49.80;;;;;;6147390;28;20094;-67
2023/04/24 10:15:21;;;;;;;3.90;1.20;;;20.10;49.70;;;;;;6146578;28;20138;-68
2023/04/24 10:18:22;;;;;;;3.13;1.42;;;20.20;49.40;;;;;;6144762;28;20404;-69
2023/04/24 10:21:23;;;;;;;4.32;1.65;;;20.40;48.30;;;;;;6139682;28;20079;-67
2023/04/24 10:24:24;;;;;;;2.67;1.20;;;20.60;48.20;;;;;;6120873;29;20063;-66
2023/04/24 10:27:27;;;;;;;1.02;0.70;;;20.70;48.00;;;;;;6123903;29;20032;-66
2023/04/24 10:30:37;;;;;;;2.88;1.02;;;20.80;47.30;;;;;;6106750;29;20067;-67
2023/04/24 10:33:42;;;;;;;2.50;0.70;;;20.70;46.90;;;;;;6123829;29;20122;-67
2023/04/24 10:36:51;;;;;;;2.33;0.90;;;20.70;47.10;;;;;;6125102;29;20030;-67
2023/04/24 10:39:54;;;;;;;3.63;0.68;;;20.70;47.00;;;;;;6125837;29;20035;-71
2023/04/24 10:42:56;;;;;;;0.77;0.60;;;20.70;47.00;;;;;;6125086;29;20027;-67
2023/04/24 10:46:02;;;;;;;4.63;1.48;;;20.70;47.20;;;;;;6124047;29;20035;-68
2023/04/24 10:49:14;;;;;;;1.83;0.77;;;20.80;47.00;;;;;;6122076;29;20118;-69
2023/04/24 10:52:16;;;;;;;2.72;0.88;;;20.90;46.20;;;;;;6132299;29;20023;-67
2023/04/24 10:55:50;;;;;;;1.65;0.82;;;21.10;45.00;;;;;;6146963;28;20453;-71
2023/04/24 10:58:53;;;;;;;1.60;0.68;;;21.40;44.90;;;;;;6145841;28;20082;-70
2023/04/24 11:01:57;;;;;;;1.65;1.00;;;21.80;44.50;;;;;;6145604;28;20108;-67
2023/04/24 11:05:03;;;;;;;1.25;0.70;;;22.30;43.90;;;;;;6145857;28;20036;-68
2023/04/24 11:08:15;;;;;;;2.05;0.90;;;22.80;42.80;;;;;;6145500;28;20171;-67
2023/04/24 11:11:18;;;;;;;1.67;0.80;;;23.30;41.50;;;;;;6144556;29;20118;-67
2023/04/24 11:14:19;;;;;;;1.65;0.68;;;23.30;40.40;;;;;;6144984;29;20031;-67
2023/04/24 11:17:30;;;;;;;2.50;0.70;;;23.20;39.80;;;;;;6139360;28;20453;-68
2023/04/24 11:20:31;;;;;;;0.68;0.65;;;23.20;40.20;;;;;;6121394;29;20031;-68
2023/04/24 11:23:37;;;;;;;3.47;0.95;;;23.40;39.60;;;;;;6121389;29;20043;-65
2023/04/24 11:26:38;;;;;;;1.48;0.70;;;23.40;39.60;;;;;;6121127;29;20036;-69
2023/04/24 11:29:44;;;;;;;0.68;0.47;;;23.10;39.80;;;;;;6102991;29;20027;-68
2023/04/24 11:32:50;;;;;;;2.80;0.70;;;22.90;40.30;;;;;;6121267;29;20024;-67
2023/04/24 11:35:51;;;;;;;0.47;0.47;;;22.60;40.30;;;;;;6119531;29;20039;-66
2023/04/24 11:38:52;;;;;;;2.30;0.80;;;22.30;40.50;;;;;;6120592;29;20039;-68
2023/04/24 11:42:01;;;;;;;1.98;0.70;;;22.00;40.90;;;;;;6119236;29;20055;-67
2023/04/24 11:45:10;;;;;;;1.52;0.38;;;21.90;41.30;;;;;;6120519;29;20083;-69
2023/04/24 11:48:11;;;;;;;1.30;0.70;;;22.00;41.80;;;;;;6120315;29;20042;-68
2023/04/24 11:51:13;;;;;;;2.25;0.70;;;22.50;41.50;;;;;;6121638;29;20099;-67
2023/04/24 11:54:14;;;;;;;2.30;0.68;;;23.10;40.60;;;;;;6142872;28;20027;-69
2023/04/24 11:57:16;;;;;;;0.60;0.60;;;23.80;39.30;;;;;;6142710;28;20586;-70
2023/04/24 12:00:27;;;;;;;0.63;0.47;;;24.30;38.00;;;;;;6142781;28;20622;-68
2023/04/24 12:03:28;;;;;;;5.18;1.00;;;24.90;36.80;;;;;;6142908;28;20177;-69
2023/04/24 12:06:30;;;;;;;1.05;0.65;;;25.50;35.00;;;;;;6144254;29;20027;-67
2023/04/24 12:10:00;;;;;;;0.60;0.60;;;25.90;34.20;;;;;;6144001;28;20114;-68
2023/04/24 12:13:01;;;;;;;1.38;0.60;;;26.40;33.60;;;;;;6140898;28;20369;-69
2023/04/24 12:16:04;;;;;;;0.50;0.50;;;26.80;32.10;;;;;;6100840;29;20040;-67
2023/04/24 12:19:06;;;;;;;3.83;0.45;;;27.30;31.10;;;;;;6116471;29;20035;-69
2023/04/24 12:22:07;;;;;;;2.30;1.02;;;27.70;30.00;;;;;;6116811;29;20349;-67
2023/04/24 12:25:11;;;;;;;1.77;0.45;;;28.30;29.20;;;;;;6100841;29;20155;-70
2023/04/24 12:28:13;;;;;;;4.80;1.08;;;28.90;28.80;;;;;;6100043;29;20034;-67
2023/04/24 12:31:13;;;;;;;2.10;0.77;;;29.40;28.10;;;;;;6100371;29;20094;-67
2023/04/24 12:34:20;;;;;;;1.55;0.70;;;29.90;27.30;;;;;;6100385;29;20031;-69
2023/04/24 12:37:25;;;;;;;1.55;0.68;;;30.40;26.60;;;;;;6116255;29;20135;-70
2023/04/24 12:40:26;;;;;;;1.25;0.70;;;31.00;26.10;;;;;;6086743;29;20082;-67
2023/04/24 12:43:27;;;;;;;4.97;0.77;;;31.50;25.30;;;;;;6121429;29;20043;-69
2023/04/24 12:46:28;;;;;;;1.13;0.60;;;32.20;24.70;;;;;;6105991;29;20074;-71
2023/04/24 12:49:31;;;;;;;3.55;0.73;;;32.80;24.10;;;;;;6123531;29;20056;-68
2023/04/24 12:52:32;;;;;;;1.40;0.60;;;32.50;23.10;;;;;;6137873;29;20027;-69
2023/04/24 12:55:33;;;;;;;2.47;0.75;;;31.90;23.60;;;;;;6147421;28;20459;-68
2023/04/24 12:58:34;;;;;;;8.10;0.70;;;31.80;23.60;;;;;;6147956;28;20110;-68
2023/04/24 13:01:35;;;;;;;3.65;0.50;;;32.10;23.30;;;;;;6148677;29;20460;-67
2023/04/24 13:04:36;;;;;;;2.05;0.60;;;33.00;22.50;;;;;;6146962;29;20654;-68
2023/04/24 13:07:37;;;;;;;0.63;0.47;;;33.80;21.70;;;;;;6148149;28;20031;-67
2023/04/24 13:10:39;;;;;;;1.80;0.50;;;34.00;21.60;;;;;;6136707;29;20062;-70
2023/04/24 13:13:40;;;;;;;1.85;0.70;;;34.60;21.10;;;;;;6123107;29;20446;-67
2023/04/24 13:16:41;;;;;;;1.40;0.68;;;35.20;20.10;;;;;;6124655;29;20066;-68
2023/04/24 13:19:43;;;;;;;3.78;0.50;;;35.80;19.40;;;;;;6124147;29;20036;-69
2023/04/24 13:22:44;;;;;;;1.02;0.55;;;36.10;18.60;;;;;;6124391;29;20042;-66
2023/04/24 13:25:47;;;;;;;0.73;0.60;;;36.50;18.00;;;;;;6122777;29;20509;-67
2023/04/24 13:28:48;;;;;;;1.35;0.55;;;37.00;17.80;;;;;;6124523;29;20322;-68
2023/04/24 13:31:56;;;;;;;2.50;0.50;;;37.40;17.50;;;;;;6124076;29;20538;-69
2023/04/24 13:34:57;;;;;;;5.97;1.17;;;37.60;17.10;;;;;;6123959;29;20043;-68
2023/04/24 13:38:00;;;;;;;1.13;0.70;;;37.30;16.80;;;;;;6123701;29;20470;-68
2023/04/24 13:41:02;;;;;;;1.15;0.60;;;37.30;17.10;;;;;;6122038;29;20114;-67
2023/04/24 13:44:04;;;;;;;1.15;0.60;;;37.50;16.90;;;;;;6122028;29;20039;-66
2023/04/24 13:47:05;;;;;;;1.83;0.60;;;37.90;16.60;;;;;;6123507;29;20020;-67
2023/04/24 13:50:08;;;;;;;2.63;0.60;;;38.30;16.60;;;;;;6123909;29;20434;-70
2023/04/24 13:53:09;;;;;;;0.82;0.63;;;38.30;16.50;;;;;;6140628;29;20027;-66
2023/04/24 13:56:12;;;;;;;1.90;0.50;;;38.70;16.30;;;;;;6147766;28;20023;-69
2023/04/24 13:59:13;;;;;;;1.10;0.60;;;38.80;15.70;;;;;;6147963;28;20713;-68
2023/04/24 14:02:14;;;;;;;1.25;0.47;;;38.80;15.60;;;;;;6146634;28;20384;-67
2023/04/24 14:05:15;;;;;;;1.45;0.95;;;39.00;15.40;;;;;;6147007;28;20035;-67
2023/04/24 14:08:16;;;;;;;0.95;0.73;;;39.20;15.20;;;;;;6125946;29;20024;-68
2023/04/24 14:11:18;;;;;;;3.45;0.82;;;38.60;15.80;;;;;;6121858;29;20350;-67
2023/04/24 14:14:19;;;;;;;1.25;0.85;;;38.20;15.30;;;;;;6122837;29;20151;-68
2023/04/24 14:17:20;;;;;;;0.80;0.50;;;37.90;15.30;;;;;;6121325;29;20122;-67
2023/04/24 14:20:22;;;;;;;3.75;0.60;;;37.30;15.40;;;;;;6123262;29;20038;-69
2023/04/24 14:23:22;;;;;;;1.48;0.80;;;37.00;15.80;;;;;;6122805;29;20050;-66
2023/04/24 14:26:24;;;;;;;1.45;0.50;;;36.30;16.20;;;;;;6121266;29;20079;-68
2023/04/24 14:29:25;;;;;;;4.70;0.80;;;35.20;16.70;;;;;;6122657;29;20099;-66
2023/04/24 14:32:26;;;;;;;3.38;0.90;;;33.70;17.40;;;;;;6121197;29;20051;-68
2023/04/24 14:35:28;;;;;;;7.05;0.70;;;32.20;18.30;;;;;;6121140;29;20027;-67
2023/04/24 14:38:30;;;;;;;0.60;0.50;;;31.00;19.20;;;;;;6121191;29;20374;-68
2023/04/24 14:41:31;;;;;;;0.85;0.63;;;30.10;19.90;;;;;;6122535;29;20392;-69
2023/04/24 14:44:32;;;;;;;2.63;0.75;;;29.30;20.40;;;;;;6121744;29;20028;-66
2023/04/24 14:47:34;;;;;;;1.30;0.60;;;28.60;21.00;;;;;;6122279;29;20110;-68
2023/04/24 14:50:35;;;;;;;0.50;0.50;;;28.00;21.60;;;;;;6122692;29;20036;-67
2023/04/24 14:53:36;;;;;;;2.75;0.70;;;27.40;22.20;;;;;;6143464;28;20705;-66
2023/04/24 14:56:39;;;;;;;5.40;0.60;;;26.90;22.50;;;;;;6146119;28;20027;-67
2023/04/24 14:59:40;;;;;;;0.63;0.57;;;26.40;23.00;;;;;;6144731;28;20531;-66
2023/04/24 15:02:44;;;;;;;1.73;0.70;;;26.10;23.40;;;;;;6139104;28;20016;-67
2023/04/24 15:05:45;;;;;;;1.20;0.70;;;25.90;23.80;;;;;;6120081;29;20031;-67
2023/04/24 15:08:46;;;;;;;1.08;0.63;;;25.60;23.90;;;;;;6120577;29;20389;-67
2023/04/24 15:11:47;;;;;;;1.40;0.93;;;25.40;23.90;;;;;;6122191;29;20087;-68
2023/04/24 15:14:48;;;;;;;0.95;0.60;;;25.10;24.00;;;;;;6121025;29;20150;-68
2023/04/24 15:17:49;;;;;;;1.40;0.70;;;24.90;24.30;;;;;;6120439;29;20051;-69
2023/04/24 15:20:50;;;;;;;2.22;0.77;;;24.70;24.40;;;;;;6121548;29;20469;-69
2023/04/24 15:23:51;;;;;;;2.85;1.13;;;24.50;24.40;;;;;;6121588;29;20118;-69
2023/04/24 15:26:53;;;;;;;0.60;0.55;;;24.50;25.00;;;;;;6120064;29;20407;-68
2023/04/24 15:29:54;;;;;;;2.22;0.77;;;24.40;24.70;;;;;;6121110;29;20541;-68
2023/04/24 15:33:00;;;;;;;5.45;1.10;;;24.30;24.70;;;;;;6121162;29;20443;-68
2023/04/24 15:36:01;;;;;;;1.13;0.70;;;24.30;24.70;;;;;;6121254;29;20042;-69
2023/04/24 15:39:02;;;;;;;3.55;0.88;;;24.30;24.70;;;;;;6121453;29;20020;-68
2023/04/24 15:42:04;;;;;;;5.90;0.60;;;24.60;24.50;;;;;;6121524;29;20119;-66
2023/04/24 15:45:05;;;;;;;1.95;0.75;;;25.30;24.00;;;;;;6122226;29;20043;-67
2023/04/24 15:48:06;;;;;;;1.65;0.70;;;26.10;23.10;;;;;;6121451;29;20086;-68